createdAt,value
2019-01-17T00:02:23.744Z,99482.69
2019-01-17T00:05:10.170Z,99473.48
2019-01-17T00:07:40.420Z,99489.72
2019-01-17T00:10:11.381Z,99482.16
2019-01-17T00:12:47.462Z,99478.89
2019-01-17T00:15:17.842Z,99471.84
2019-01-17T00:18:04.182Z,99465.63
2019-01-17T00:20:34.438Z,99471.56
2019-01-17T00:23:04.738Z,99479.98
2019-01-17T00:25:40.997Z,99477.81
2019-01-17T00:28:11.274Z,99475.91
2019-01-17T00:30:44.193Z,99472.12
2019-01-17T00:33:17.332Z,99463.20
2019-01-17T00:36:05.637Z,99446.94
2019-01-17T00:38:44.616Z,99449.64
2019-01-17T00:41:20.831Z,99458.30
2019-01-17T00:43:51.059Z,99463.72
2019-01-17T00:46:23.935Z,99449.38
2019-01-17T00:48:56.953Z,99444.48
2019-01-17T00:51:30.389Z,99431.77
2019-01-17T00:54:08.936Z,99430.13
2019-01-17T00:56:51.101Z,99428.22
2019-01-17T00:59:33.135Z,99432.85
2019-01-17T01:02:06.324Z,99430.42
2019-01-17T01:04:39.545Z,99435.56
2019-01-17T01:07:09.856Z,99420.94
2019-01-17T01:09:40.069Z,99426.62
2019-01-17T01:12:19.088Z,99416.05
2019-01-17T01:14:49.321Z,99419.31
2019-01-17T01:17:19.515Z,99424.70
2019-01-17T01:19:49.749Z,99426.88
2019-01-17T01:22:31.982Z,99441.24
2019-01-17T01:25:20.815Z,99439.32
2019-01-17T01:28:07.214Z,99432.52
2019-01-17T01:30:37.536Z,99412.80
2019-01-17T01:33:17.036Z,99409.30
2019-01-17T01:35:47.319Z,99405.17
2019-01-17T01:38:35.840Z,99414.11
2019-01-17T01:41:22.048Z,99405.44
2019-01-17T01:43:52.280Z,99406.52
2019-01-17T01:46:22.463Z,99405.16
2019-01-17T01:48:52.744Z,99389.44
2019-01-17T01:51:29.039Z,99386.47
2019-01-17T01:53:57.638Z,99394.82
2019-01-17T01:56:26.180Z,99402.09
2019-01-17T01:58:54.771Z,99392.61
2019-01-17T02:01:23.310Z,99392.86
2019-01-17T02:03:51.916Z,99403.72
2019-01-17T02:06:20.457Z,99405.84
2019-01-17T02:08:49.044Z,99396.32
2019-01-17T02:11:17.733Z,99396.33
2019-01-17T02:13:46.535Z,99377.08
2019-01-17T02:16:15.078Z,99383.64
2019-01-17T02:18:43.677Z,99372.47
2019-01-17T02:21:12.224Z,99357.83
2019-01-17T02:23:40.806Z,99372.20
2019-01-17T02:26:09.444Z,99374.81
2019-01-17T02:28:38.093Z,99365.30
2019-01-17T02:31:06.734Z,99358.44
2019-01-17T02:33:35.357Z,99361.11
2019-01-17T02:36:04.093Z,99355.92
2019-01-17T02:38:32.741Z,99363.89
2019-01-17T02:41:01.313Z,99363.39
2019-01-17T02:43:29.922Z,99347.11
2019-01-17T02:45:58.500Z,99344.34
2019-01-17T02:48:27.196Z,99351.36
2019-01-17T02:50:55.757Z,99335.58
2019-01-17T02:53:24.394Z,99340.82
2019-01-17T02:55:52.955Z,99344.80
2019-01-17T02:58:21.546Z,99331.73
2019-01-17T03:00:50.184Z,99337.47
2019-01-17T03:03:18.779Z,99334.94
2019-01-17T03:05:47.328Z,99336.11
2019-01-17T03:08:15.964Z,99321.95
2019-01-17T03:10:44.606Z,99320.87
2019-01-17T03:13:13.256Z,99322.41
2019-01-17T03:15:41.821Z,99333.53
2019-01-17T03:18:10.419Z,99338.41
2019-01-17T03:20:38.986Z,99331.30
2019-01-17T03:23:07.621Z,99340.25
2019-01-17T03:25:36.191Z,99337.00
2019-01-17T03:28:04.863Z,99330.48
2019-01-17T03:30:33.603Z,99323.91
2019-01-17T03:33:02.209Z,99325.86
2019-01-17T03:35:30.832Z,99331.03
2019-01-17T03:37:59.417Z,99329.89
2019-01-17T03:40:27.991Z,99322.55
2019-01-17T03:42:56.557Z,99321.73
2019-01-17T03:45:25.104Z,99320.88
2019-01-17T03:47:53.758Z,99326.02
2019-01-17T03:50:22.299Z,99318.92
2019-01-17T03:52:50.957Z,99328.58
2019-01-17T03:55:20.680Z,99325.66
2019-01-17T03:57:49.406Z,99332.98
2019-01-17T04:00:19.784Z,99328.86
2019-01-17T04:02:48.453Z,99321.30
2019-01-17T04:05:16.997Z,99316.36
2019-01-17T04:07:45.644Z,99316.53
2019-01-17T04:10:15.533Z,99318.58
2019-01-17T04:12:44.289Z,99321.53
2019-01-17T04:15:13.629Z,99321.80
2019-01-17T04:17:42.257Z,99325.64
2019-01-17T04:20:13.575Z,99321.80
2019-01-17T04:22:42.310Z,99329.88
2019-01-17T04:25:11.088Z,99330.15
2019-01-17T04:27:39.693Z,99316.69
2019-01-17T04:30:13.811Z,99317.45
2019-01-17T04:32:42.426Z,99320.16
2019-01-17T04:35:10.968Z,99322.22
2019-01-17T04:37:39.593Z,99329.33
2019-01-17T04:40:10.707Z,99325.48
2019-01-17T04:42:39.358Z,99325.42
2019-01-17T04:45:10.449Z,99327.59
2019-01-17T04:47:39.266Z,99333.02
2019-01-17T04:50:10.952Z,99328.95
2019-01-17T04:52:39.544Z,99331.39
2019-01-17T04:55:09.957Z,99325.06
2019-01-17T04:57:38.559Z,99329.14
2019-01-17T05:00:13.466Z,99323.98
2019-01-17T05:02:43.173Z,99322.78
2019-01-17T05:05:12.064Z,99318.09
2019-01-17T05:07:40.853Z,99331.73
2019-01-17T05:10:12.508Z,99332.98
2019-01-17T05:12:41.193Z,99332.42
2019-01-17T05:15:11.004Z,99335.61
2019-01-17T05:17:39.691Z,99330.19
2019-01-17T05:20:13.598Z,99324.73
2019-01-17T05:22:42.270Z,99334.25
2019-01-17T05:25:12.634Z,99334.99
2019-01-17T05:27:41.262Z,99328.67
2019-01-17T05:30:15.338Z,99339.20
2019-01-17T05:32:43.998Z,99332.20
2019-01-17T05:35:12.604Z,99337.92
2019-01-17T05:37:41.300Z,99350.38
2019-01-17T05:40:15.599Z,99330.42
2019-01-17T05:42:44.269Z,99331.99
2019-01-17T05:45:12.933Z,99331.18
2019-01-17T05:47:41.616Z,99330.09
2019-01-17T05:50:15.612Z,99336.09
2019-01-17T05:52:44.271Z,99331.18
2019-01-17T05:55:19.470Z,99335.64
2019-01-17T05:57:43.233Z,99341.65
2019-01-17T06:00:17.121Z,99339.38
2019-01-17T06:02:45.766Z,99337.63
2019-01-17T06:05:15.557Z,99334.36
2019-01-17T06:07:44.188Z,99340.03
2019-01-17T06:10:13.068Z,99337.91
2019-01-17T06:12:41.674Z,99340.84
2019-01-17T06:15:16.106Z,99341.16
2019-01-17T06:17:44.759Z,99343.89
2019-01-17T06:20:16.046Z,99353.13
2019-01-17T06:22:44.687Z,99352.58
2019-01-17T06:25:13.743Z,99361.14
2019-01-17T06:27:42.399Z,99363.09
2019-01-17T06:30:13.649Z,99353.39
2019-01-17T06:32:42.281Z,99355.23
2019-01-17T06:35:11.383Z,99361.88
2019-01-17T06:37:40.089Z,99373.30
2019-01-17T06:40:11.834Z,99373.23
2019-01-17T06:42:40.986Z,99373.38
2019-01-17T06:45:09.595Z,99377.17
2019-01-17T06:47:38.248Z,99377.05
2019-01-17T06:50:09.701Z,99384.86
2019-01-17T06:52:38.336Z,99373.92
2019-01-17T06:55:08.509Z,99375.02
2019-01-17T06:57:37.314Z,99377.53
2019-01-17T07:00:17.121Z,99365.23
2019-01-17T07:02:45.824Z,99376.05
2019-01-17T07:05:15.309Z,99370.33
2019-01-17T07:07:43.983Z,99383.92
2019-01-17T07:10:15.134Z,99378.48
2019-01-17T07:12:43.816Z,99390.23
2019-01-17T07:15:13.035Z,99406.49
2019-01-17T07:17:41.723Z,99401.89
2019-01-17T07:20:12.978Z,99400.03
2019-01-17T07:22:41.660Z,99410.55
2019-01-17T07:25:11.171Z,99417.70
2019-01-17T07:27:39.856Z,99418.86
2019-01-17T07:30:11.715Z,99434.64
2019-01-17T07:32:40.508Z,99434.38
2019-01-17T07:35:09.988Z,99437.58
2019-01-17T07:37:38.695Z,99435.27
2019-01-17T07:40:09.426Z,99442.80
2019-01-17T07:42:38.217Z,99431.13
2019-01-17T07:45:09.973Z,99425.12
2019-01-17T07:47:38.761Z,99422.88
2019-01-17T07:50:09.803Z,99423.30
2019-01-17T07:52:38.590Z,99438.39
2019-01-17T07:55:09.303Z,99442.20
2019-01-17T07:57:38.010Z,99440.89
2019-01-17T08:00:12.532Z,99454.51
2019-01-17T08:02:41.219Z,99452.14
2019-01-17T08:05:09.905Z,99456.73
2019-01-17T08:07:38.792Z,99452.72
2019-01-17T08:10:10.758Z,99462.80
2019-01-17T08:12:39.444Z,99466.19
2019-01-17T08:15:10.074Z,99478.16
2019-01-17T08:17:38.862Z,99483.30
2019-01-17T08:20:13.590Z,99478.66
2019-01-17T08:22:42.277Z,99480.62
2019-01-17T08:25:11.970Z,99480.90
2019-01-17T08:27:40.670Z,99483.07
2019-01-17T08:30:15.191Z,99483.94
2019-01-17T08:32:43.980Z,99483.67
2019-01-17T08:35:13.101Z,99485.48
2019-01-17T08:37:41.864Z,99479.32
2019-01-17T08:40:20.288Z,99482.33
2019-01-17T08:42:46.709Z,99485.70
2019-01-17T08:45:15.705Z,99486.84
2019-01-17T08:47:44.388Z,99486.89
2019-01-17T08:50:15.467Z,99492.59
2019-01-17T08:52:44.527Z,99492.11
2019-01-17T08:55:13.415Z,99496.72
2019-01-17T08:57:42.204Z,99502.45
2019-01-17T09:00:16.731Z,99517.05
2019-01-17T09:02:45.411Z,99517.08
2019-01-17T09:05:14.201Z,99518.98
2019-01-17T09:07:42.896Z,99517.58
2019-01-17T09:10:14.848Z,99516.98
2019-01-17T09:12:43.533Z,99512.55
2019-01-17T09:15:14.986Z,99513.98
2019-01-17T09:17:43.672Z,99519.34
2019-01-17T09:20:15.793Z,99522.28
2019-01-17T09:22:44.422Z,99525.62
2019-01-17T09:25:14.848Z,99521.74
2019-01-17T09:27:43.431Z,99524.39
2019-01-17T09:30:17.932Z,99531.75
2019-01-17T09:32:46.641Z,99536.06
2019-01-17T09:35:16.860Z,99539.00
2019-01-17T09:37:45.649Z,99537.11
2019-01-17T09:40:19.538Z,99545.89
2019-01-17T09:42:48.408Z,99542.55
2019-01-17T09:45:17.211Z,99530.47
2019-01-17T09:47:45.844Z,99531.28
2019-01-17T09:50:23.006Z,99538.75
2019-01-17T09:52:53.226Z,99539.36
2019-01-17T09:55:21.915Z,99544.06
2019-01-17T09:57:50.699Z,99539.15
2019-01-17T10:00:25.240Z,99533.02
2019-01-17T10:02:54.022Z,99539.23
2019-01-17T10:05:22.695Z,99542.23
2019-01-17T10:07:51.793Z,99552.31
2019-01-17T10:10:24.022Z,99549.75
2019-01-17T10:12:53.263Z,99544.95
2019-01-17T10:15:30.958Z,99552.30
2019-01-17T10:18:14.697Z,99545.48
2019-01-17T10:21:01.812Z,99543.05
2019-01-17T10:23:39.609Z,99538.38
2019-01-17T10:26:11.462Z,99539.59
2019-01-17T10:29:08.811Z,99540.59
2019-01-17T10:31:40.580Z,99531.97
2019-01-17T10:34:12.363Z,99542.05
2019-01-17T10:36:59.257Z,99542.27
2019-01-17T10:39:53.650Z,99528.44
2019-01-17T10:42:28.172Z,99536.02
2019-01-17T10:45:17.846Z,99525.02
2019-01-17T10:48:01.788Z,99521.87
2019-01-17T10:50:42.455Z,99526.09
2019-01-17T10:53:23.492Z,99521.66
2019-01-17T10:56:14.747Z,99521.92
2019-01-17T10:58:46.691Z,99515.22
2019-01-17T11:01:24.199Z,99517.45
2019-01-17T11:04:04.765Z,99510.04
2019-01-17T11:06:45.381Z,99513.78
2019-01-17T11:09:22.848Z,99510.88
2019-01-17T11:11:54.631Z,99510.16
2019-01-17T11:14:26.369Z,99508.16
2019-01-17T11:17:20.969Z,99508.16
2019-01-17T11:20:09.100Z,99504.59
2019-01-17T11:22:59.834Z,99501.11
2019-01-17T11:25:43.416Z,99496.41
2019-01-17T11:28:17.702Z,99498.67
2019-01-17T11:31:01.333Z,99499.86
2019-01-17T11:33:38.764Z,99494.45
2019-01-17T11:36:16.269Z,99492.94
2019-01-17T11:39:10.745Z,99493.48
2019-01-17T11:41:51.513Z,99481.25
2019-01-17T11:44:29.118Z,99487.88
2019-01-17T11:47:09.531Z,99482.90
2019-01-17T11:49:41.317Z,99480.89
2019-01-17T11:52:37.238Z,99477.78
2019-01-17T11:55:40.761Z,99476.64
2019-01-17T11:58:24.543Z,99474.34
2019-01-17T12:01:12.626Z,99475.08
2019-01-17T12:04:00.983Z,99470.25
2019-01-17T12:06:29.666Z,99459.59
2019-01-17T12:08:58.339Z,99462.88
2019-01-17T12:11:27.022Z,99462.91
2019-01-17T12:13:55.558Z,99463.05
2019-01-17T12:16:24.195Z,99462.78
2019-01-17T12:18:52.746Z,99458.91
2019-01-17T12:21:21.373Z,99447.20
2019-01-17T12:23:49.925Z,99459.40
2019-01-17T12:26:18.843Z,99459.02
2019-01-17T12:28:47.452Z,99457.06
2019-01-17T12:31:16.097Z,99458.63
2019-01-17T12:33:44.682Z,99453.69
2019-01-17T12:36:13.291Z,99444.08
2019-01-17T12:38:41.872Z,99446.83
2019-01-17T12:41:10.570Z,99448.73
2019-01-17T12:43:39.215Z,99440.20
2019-01-17T12:46:07.840Z,99430.88
2019-01-17T12:48:36.418Z,99418.80
2019-01-17T12:51:05.173Z,99432.69
2019-01-17T12:53:33.737Z,99433.55
2019-01-17T12:56:02.434Z,99418.37
2019-01-17T12:58:31.005Z,99413.08
2019-01-17T13:00:59.622Z,99401.89
2019-01-17T13:03:28.219Z,99410.59
2019-01-17T13:05:56.864Z,99407.55
2019-01-17T13:08:25.515Z,99398.76
2019-01-17T13:10:54.083Z,99399.71
2019-01-17T13:13:23.208Z,99398.60
2019-01-17T13:15:51.797Z,99387.69
2019-01-17T13:18:20.398Z,99381.72
2019-01-17T13:20:48.961Z,99376.33
2019-01-17T13:23:17.602Z,99381.06
2019-01-17T13:25:46.235Z,99379.89
2019-01-17T13:28:14.880Z,99389.69
2019-01-17T13:30:43.406Z,99385.97
2019-01-17T13:33:12.856Z,99381.65
2019-01-17T13:35:41.404Z,99387.69
2019-01-17T13:38:12.049Z,99375.64
2019-01-17T13:40:40.595Z,99367.87
2019-01-17T13:43:09.185Z,99375.98
2019-01-17T13:45:38.784Z,99386.47
2019-01-17T13:48:07.543Z,99374.14
2019-01-17T13:50:36.100Z,99377.03
2019-01-17T13:53:04.733Z,99377.80
2019-01-17T13:55:33.680Z,99376.37
2019-01-17T13:58:02.259Z,99372.08
2019-01-17T14:00:30.818Z,99376.20
2019-01-17T14:02:59.927Z,99365.14
2019-01-17T14:05:28.489Z,99365.83
2019-01-17T14:07:57.060Z,99368.52
2019-01-17T14:10:25.715Z,99366.92
2019-01-17T14:12:54.313Z,99366.80
2019-01-17T14:15:30.897Z,99374.83
2019-01-17T14:17:59.567Z,99378.44
2019-01-17T14:20:28.140Z,99365.47
2019-01-17T14:22:56.758Z,99375.37
2019-01-17T14:25:25.330Z,99376.36
2019-01-17T14:27:53.900Z,99373.33
2019-01-17T14:30:27.123Z,99368.92
2019-01-17T14:32:55.752Z,99365.61
2019-01-17T14:35:24.299Z,99357.02
2019-01-17T14:37:52.915Z,99358.58
2019-01-17T14:40:21.448Z,99352.16
2019-01-17T14:42:50.039Z,99348.34
2019-01-17T14:45:22.611Z,99346.63
2019-01-17T14:47:51.335Z,99342.66
2019-01-17T14:50:27.437Z,99337.98
2019-01-17T14:52:56.089Z,99336.31
2019-01-17T14:55:24.634Z,99339.39
2019-01-17T14:57:53.306Z,99339.22
2019-01-17T15:00:30.066Z,99338.70
2019-01-17T15:02:58.694Z,99335.59
2019-01-17T15:05:27.331Z,99333.22
2019-01-17T15:07:56.060Z,99336.42
2019-01-17T15:10:34.907Z,99340.02
2019-01-17T15:13:03.547Z,99343.47
2019-01-17T15:15:32.275Z,99341.06
2019-01-17T15:18:02.083Z,99343.47
2019-01-17T15:20:30.655Z,99335.36
2019-01-17T15:22:59.367Z,99335.75
2019-01-17T15:25:28.145Z,99341.21
2019-01-17T15:27:56.774Z,99336.40
2019-01-17T15:30:26.023Z,99332.67
2019-01-17T15:32:54.924Z,99322.73
2019-01-17T15:35:23.495Z,99323.55
2019-01-17T15:37:52.077Z,99328.46
2019-01-17T15:40:30.502Z,99323.36
2019-01-17T15:42:59.102Z,99325.53
2019-01-17T15:45:27.643Z,99322.83
2019-01-17T15:47:56.230Z,99324.53
2019-01-17T15:50:24.822Z,99332.23
2019-01-17T15:52:53.501Z,99330.66
2019-01-17T15:55:22.134Z,99331.80
2019-01-17T15:57:50.707Z,99319.09
2019-01-17T16:00:27.491Z,99324.87
2019-01-17T16:02:56.162Z,99313.52
2019-01-17T16:05:24.792Z,99316.39
2019-01-17T16:07:53.422Z,99317.61
2019-01-17T16:10:22.036Z,99321.97
2019-01-17T16:12:50.755Z,99321.73
2019-01-17T16:15:22.107Z,99322.09
2019-01-17T16:17:50.780Z,99319.42
2019-01-17T16:20:19.420Z,99319.91
2019-01-17T16:22:48.449Z,99309.88
2019-01-17T16:25:16.988Z,99308.07
2019-01-17T16:27:45.623Z,99311.92
2019-01-17T16:30:27.480Z,99312.63
2019-01-17T16:32:56.146Z,99317.02
2019-01-17T16:35:24.830Z,99321.36
2019-01-17T16:37:54.020Z,99327.12
2019-01-17T16:40:22.583Z,99327.17
2019-01-17T16:42:51.224Z,99332.95
2019-01-17T16:45:23.009Z,99326.80
2019-01-17T16:47:51.603Z,99328.53
2019-01-17T16:50:22.307Z,99333.23
2019-01-17T16:52:50.997Z,99330.98
2019-01-17T16:55:19.732Z,99333.30
2019-01-17T16:57:49.177Z,99330.58
2019-01-17T17:00:30.496Z,99334.92
2019-01-17T17:02:59.096Z,99333.39
2019-01-17T17:05:27.740Z,99338.55
2019-01-17T17:07:56.364Z,99349.83
2019-01-17T17:10:25.015Z,99356.66
2019-01-17T17:12:53.616Z,99343.31
2019-01-17T17:15:22.163Z,99347.96
2019-01-17T17:17:50.819Z,99341.56
2019-01-17T17:20:21.735Z,99345.92
2019-01-17T17:22:50.394Z,99343.24
2019-01-17T17:25:19.007Z,99345.30
2019-01-17T17:27:47.729Z,99355.16
2019-01-17T17:30:25.041Z,99345.17
2019-01-17T17:32:53.676Z,99346.42
2019-01-17T17:35:22.273Z,99352.00
2019-01-17T17:37:50.920Z,99343.36
2019-01-17T17:40:22.317Z,99342.18
2019-01-17T17:42:50.932Z,99353.27
2019-01-17T17:45:19.611Z,99361.63
2019-01-17T17:47:48.215Z,99365.75
2019-01-17T17:50:18.845Z,99366.83
2019-01-17T17:52:47.501Z,99366.30
2019-01-17T17:55:17.739Z,99364.80
2019-01-17T17:57:46.684Z,99357.42
2019-01-17T18:00:25.156Z,99356.70
2019-01-17T18:02:54.250Z,99359.00
2019-01-17T18:05:23.241Z,99366.56
2019-01-17T18:07:52.258Z,99372.42
2019-01-17T18:10:20.882Z,99376.30
2019-01-17T18:12:49.493Z,99383.12
2019-01-17T18:15:19.433Z,99383.73
2019-01-17T18:17:48.304Z,99394.27
2019-01-17T18:20:17.797Z,99398.03
2019-01-17T18:22:46.560Z,99404.09
2019-01-17T18:25:15.182Z,99411.98
2019-01-17T18:27:43.866Z,99413.67
2019-01-17T18:30:20.331Z,99421.02
2019-01-17T18:32:48.990Z,99427.25
2019-01-17T18:35:17.556Z,99424.54
2019-01-17T18:37:46.292Z,99428.95
2019-01-17T18:40:17.746Z,99440.53
2019-01-17T18:42:46.431Z,99434.30
2019-01-17T18:45:25.798Z,99436.20
2019-01-17T18:47:54.459Z,99438.09
2019-01-17T18:50:25.871Z,99443.52
2019-01-17T18:52:54.496Z,99446.72
2019-01-17T18:55:23.200Z,99462.26
2019-01-17T18:57:51.876Z,99470.88
2019-01-17T19:00:23.739Z,99455.19
2019-01-17T19:02:52.526Z,99460.86
2019-01-17T19:05:21.517Z,99463.30
2019-01-17T19:07:50.149Z,99458.11
2019-01-17T19:10:20.351Z,99468.11
2019-01-17T19:12:49.133Z,99482.80
2019-01-17T19:15:20.482Z,99491.50
2019-01-17T19:17:49.272Z,99498.52
2019-01-17T19:20:20.420Z,99505.34
2019-01-17T19:22:49.409Z,99507.77
2019-01-17T19:25:18.523Z,99516.18
2019-01-17T19:27:47.397Z,99525.34
2019-01-17T19:30:25.702Z,99524.58
2019-01-17T19:32:54.610Z,99529.70
2019-01-17T19:35:23.280Z,99534.84
2019-01-17T19:37:52.170Z,99535.91
2019-01-17T19:40:23.210Z,99544.88
2019-01-17T19:42:52.308Z,99552.17
2019-01-17T19:45:21.306Z,99556.51
2019-01-17T19:47:50.154Z,99564.61
2019-01-17T19:50:21.947Z,99564.66
2019-01-17T19:52:50.839Z,99571.16
2019-01-17T19:55:19.528Z,99572.55
2019-01-17T19:57:48.208Z,99581.16
2019-01-17T20:00:19.127Z,99580.92
2019-01-17T20:02:47.935Z,99598.48
2019-01-17T20:05:25.634Z,99599.36
2019-01-17T20:07:54.425Z,99600.39
2019-01-17T20:10:31.095Z,99614.45
2019-01-17T20:13:00.600Z,99610.95
2019-01-17T20:15:29.489Z,99621.04
2019-01-17T20:17:58.382Z,99623.72
2019-01-17T20:20:31.824Z,99620.98
2019-01-17T20:22:57.700Z,99635.67
2019-01-17T20:25:26.383Z,99636.46
2019-01-17T20:27:55.171Z,99638.62
2019-01-17T20:30:27.031Z,99634.86
2019-01-17T20:32:57.633Z,99633.77
2019-01-17T20:35:26.177Z,99644.89
2019-01-17T20:37:54.860Z,99652.48
2019-01-17T20:40:24.911Z,99663.61
2019-01-17T20:42:53.799Z,99660.33
2019-01-17T20:45:22.914Z,99661.42
2019-01-17T20:47:51.605Z,99670.93
2019-01-17T20:50:28.887Z,99675.23
2019-01-17T20:52:57.617Z,99667.39
2019-01-17T20:55:26.309Z,99679.06
2019-01-17T20:57:54.960Z,99678.79
2019-01-17T21:00:38.165Z,99682.30
2019-01-17T21:03:09.408Z,99686.09
2019-01-17T21:05:37.983Z,99685.02
2019-01-17T21:08:06.555Z,99687.74
2019-01-17T21:10:35.253Z,99687.46
2019-01-17T21:13:03.899Z,99688.81
2019-01-17T21:15:32.451Z,99693.16
2019-01-17T21:18:01.064Z,99699.37
2019-01-17T21:20:29.703Z,99707.77
2019-01-17T21:22:58.442Z,99716.98
2019-01-17T21:25:27.060Z,99718.63
2019-01-17T21:27:55.720Z,99716.73
2019-01-17T21:30:25.926Z,99717.27
2019-01-17T21:32:54.637Z,99726.44
2019-01-17T21:35:23.196Z,99723.47
2019-01-17T21:37:51.842Z,99723.47
2019-01-17T21:40:21.929Z,99734.30
2019-01-17T21:42:50.556Z,99749.76
2019-01-17T21:45:19.565Z,99741.35
2019-01-17T21:47:48.224Z,99745.94
2019-01-17T21:50:19.872Z,99741.34
2019-01-17T21:52:48.580Z,99747.80
2019-01-17T21:55:17.127Z,99754.84
2019-01-17T21:57:45.720Z,99757.83
2019-01-17T22:00:25.801Z,99759.19
2019-01-17T22:02:54.402Z,99760.23
2019-01-17T22:05:22.956Z,99771.33
2019-01-17T22:07:51.611Z,99773.55
2019-01-17T22:10:20.951Z,99777.58
2019-01-17T22:12:49.590Z,99778.16
2019-01-17T22:15:20.859Z,99784.89
2019-01-17T22:17:49.551Z,99792.75
2019-01-17T22:20:18.442Z,99794.14
2019-01-17T22:22:47.101Z,99783.78
2019-01-17T22:25:20.381Z,99790.84
2019-01-17T22:27:51.110Z,99793.86
2019-01-17T22:30:22.619Z,99804.41
2019-01-17T22:32:51.288Z,99807.61
2019-01-17T22:35:19.949Z,99804.13
2019-01-17T22:37:48.615Z,99814.69
2019-01-17T22:40:17.841Z,99820.61
2019-01-17T22:42:46.438Z,99812.19
2019-01-17T22:45:29.581Z,99816.80
2019-01-17T22:47:58.158Z,99823.60
2019-01-17T22:50:26.800Z,99823.32
2019-01-17T22:52:55.629Z,99826.35
2019-01-17T22:55:24.196Z,99827.97
2019-01-17T22:57:52.812Z,99835.30
2019-01-17T23:00:40.962Z,99845.81
2019-01-17T23:03:09.856Z,99848.17
2019-01-17T23:05:38.426Z,99852.77
2019-01-17T23:08:07.003Z,99855.81
2019-01-17T23:10:35.577Z,99854.16
2019-01-17T23:13:04.336Z,99858.98
2019-01-17T23:15:32.925Z,99860.05
2019-01-17T23:18:01.564Z,99866.76
2019-01-17T23:20:30.145Z,99864.05
2019-01-17T23:22:58.730Z,99867.06
2019-01-17T23:25:27.295Z,99869.55
2019-01-17T23:27:55.880Z,99877.02
2019-01-17T23:30:24.442Z,99871.00
2019-01-17T23:32:53.090Z,99872.64
2019-01-17T23:35:21.667Z,99874.53
2019-01-17T23:37:50.322Z,99878.34
2019-01-17T23:40:18.973Z,99887.52
2019-01-17T23:42:47.675Z,99883.47
2019-01-17T23:45:16.255Z,99889.09
2019-01-17T23:47:44.858Z,99886.45
2019-01-17T23:50:14.062Z,99884.22
2019-01-17T23:52:42.673Z,99895.04
2019-01-17T23:55:11.312Z,99894.50
2019-01-17T23:57:39.913Z,99897.74
